Time;durP1;ratioP1;P1;durP2;ratioP2;P2;SDS_P1;SDS_P2;PMS_P1;PMS_P2;Temp;Humidity;BMP_temperature;BMP_pressure;BME280_temperature;BME280_humidity;BME280_pressure;Samples;Min_cycle;Max_cycle;Signal;HPM_P1;HPM_P2
2021/03/08 00:00:46;;;;;;;27.07;15.80;;;5.60;99.90;;;;;;5066063;28;20476;-64
2021/03/08 00:03:14;;;;;;;27.93;16.30;;;5.60;99.90;;;;;;5071710;28;20429;-64
2021/03/08 00:05:41;;;;;;;26.03;16.10;;;5.50;99.90;;;;;;5069078;28;20425;-64
2021/03/08 00:08:07;;;;;;;25.20;15.17;;;5.60;99.90;;;;;;5067712;28;20419;-63
2021/03/08 00:10:34;;;;;;;27.83;17.10;;;5.60;99.90;;;;;;5070096;28;20424;-65
2021/03/08 00:13:01;;;;;;;26.90;17.10;;;5.60;99.90;;;;;;5070446;28;20478;-64
2021/03/08 00:15:28;;;;;;;26.37;16.50;;;5.60;99.90;;;;;;5069480;28;20429;-66
2021/03/08 00:17:55;;;;;;;26.00;15.43;;;5.50;99.90;;;;;;5051115;28;20882;-64
2021/03/08 00:20:23;;;;;;;29.03;17.53;;;5.60;99.90;;;;;;5050061;28;20493;-63
2021/03/08 00:22:50;;;;;;;27.20;15.90;;;5.60;99.90;;;;;;5062373;28;20792;-64
2021/03/08 00:25:18;;;;;;;28.30;17.50;;;5.60;99.90;;;;;;5057457;28;20900;-65
2021/03/08 00:27:44;;;;;;;26.50;16.70;;;5.60;99.90;;;;;;5067332;28;20440;-64
2021/03/08 00:30:12;;;;;;;26.70;16.17;;;5.50;99.90;;;;;;5068771;28;20462;-64
2021/03/08 00:32:39;;;;;;;26.93;15.97;;;5.40;99.90;;;;;;5070528;28;20860;-64
2021/03/08 00:35:08;;;;;;;29.07;18.70;;;5.40;99.90;;;;;;5070310;28;20505;-64
2021/03/08 00:37:35;;;;;;;30.80;18.10;;;5.30;99.90;;;;;;5069486;28;20453;-64
2021/03/08 00:40:04;;;;;;;28.63;17.50;;;5.40;99.90;;;;;;5064836;28;20966;-63
2021/03/08 00:42:30;;;;;;;27.17;16.83;;;5.40;99.90;;;;;;5065365;28;20538;-63
2021/03/08 00:44:57;;;;;;;26.63;16.57;;;5.30;99.90;;;;;;5070125;28;20493;-65
2021/03/08 00:47:24;;;;;;;26.07;15.80;;;5.30;99.90;;;;;;5050073;28;20458;-65
2021/03/08 00:49:51;;;;;;;26.20;18.33;;;5.30;99.90;;;;;;5070348;28;20989;-64
2021/03/08 00:52:19;;;;;;;24.87;17.13;;;5.30;99.90;;;;;;5069325;28;20426;-64
2021/03/08 00:54:46;;;;;;;25.77;16.87;;;5.40;99.90;;;;;;5069371;28;20479;-65
2021/03/08 00:57:12;;;;;;;25.17;16.50;;;5.40;99.90;;;;;;5067545;28;20459;-63
2021/03/08 00:59:39;;;;;;;26.10;15.70;;;5.30;99.90;;;;;;5068747;28;20539;-65
2021/03/08 01:02:06;;;;;;;25.10;16.73;;;5.30;99.90;;;;;;5068769;28;20442;-63
2021/03/08 01:04:33;;;;;;;29.43;17.13;;;5.40;99.90;;;;;;5070319;28;20435;-65
2021/03/08 01:07:00;;;;;;;22.50;15.23;;;5.40;99.90;;;;;;5069735;28;20475;-63
2021/03/08 01:09:27;;;;;;;23.93;15.60;;;5.40;99.90;;;;;;5067316;28;20446;-63
2021/03/08 01:11:54;;;;;;;26.60;16.43;;;5.30;99.90;;;;;;5065751;28;20427;-64
2021/03/08 01:14:20;;;;;;;25.53;16.57;;;5.30;99.90;;;;;;5070094;28;21212;-64
2021/03/08 01:16:47;;;;;;;24.83;16.33;;;5.30;99.90;;;;;;5070764;28;20463;-64
2021/03/08 01:19:13;;;;;;;25.90;16.57;;;5.30;99.90;;;;;;5071557;28;20538;-64
2021/03/08 01:21:40;;;;;;;23.60;15.53;;;5.40;99.90;;;;;;5071844;28;20471;-64
2021/03/08 01:24:08;;;;;;;27.67;18.40;;;5.30;99.90;;;;;;5074281;28;20480;-63
2021/03/08 01:26:36;;;;;;;32.30;19.20;;;5.30;99.90;;;;;;5073756;28;20933;-65
2021/03/08 01:29:02;;;;;;;30.17;19.33;;;5.30;99.90;;;;;;5073163;28;20442;-63
2021/03/08 01:31:29;;;;;;;26.47;16.80;;;5.20;99.90;;;;;;5072092;28;20450;-63
2021/03/08 01:33:59;;;;;;;26.93;15.57;;;5.30;99.90;;;;;;5070507;28;20454;-65
2021/03/08 01:36:25;;;;;;;27.73;18.00;;;5.30;99.90;;;;;;5066635;28;20521;-62
2021/03/08 01:38:52;;;;;;;27.00;17.30;;;5.20;99.90;;;;;;5071916;28;20458;-63
2021/03/08 01:41:18;;;;;;;30.83;16.23;;;5.20;99.90;;;;;;5072257;28;20459;-63
2021/03/08 01:43:46;;;;;;;25.00;16.80;;;5.10;99.90;;;;;;5071094;28;20992;-63
2021/03/08 01:46:12;;;;;;;26.13;16.67;;;5.10;99.90;;;;;;5070383;28;20466;-63
2021/03/08 01:48:39;;;;;;;31.53;17.50;;;5.10;99.90;;;;;;5072721;28;20456;-64
2021/03/08 01:51:06;;;;;;;24.23;15.27;;;5.10;99.90;;;;;;5053620;28;20504;-63
2021/03/08 01:53:35;;;;;;;23.37;14.80;;;5.10;99.90;;;;;;5073561;28;20950;-63
2021/03/08 01:56:02;;;;;;;29.07;17.40;;;5.00;99.90;;;;;;5072853;28;20454;-65
2021/03/08 01:58:28;;;;;;;29.90;17.23;;;5.00;99.90;;;;;;5073784;28;20443;-64
2021/03/08 02:00:56;;;;;;;26.10;16.23;;;5.00;99.90;;;;;;5068190;28;20872;-65
2021/03/08 02:03:23;;;;;;;28.13;17.20;;;5.10;99.90;;;;;;5056298;28;20503;-63
2021/03/08 02:05:50;;;;;;;27.30;16.87;;;5.10;99.90;;;;;;5067017;28;20988;-64
2021/03/08 02:08:18;;;;;;;26.90;17.33;;;5.10;99.90;;;;;;5073151;28;20494;-64
2021/03/08 02:10:46;;;;;;;28.03;17.90;;;5.00;99.90;;;;;;5073035;28;20451;-63
2021/03/08 02:13:39;;;;;;;29.03;16.77;;;5.00;99.90;;;;;;5072437;28;20447;-63
2021/03/08 02:16:12;;;;;;;30.07;16.40;;;4.90;99.90;;;;;;5073076;28;20430;-64
2021/03/08 02:18:44;;;;;;;29.70;17.80;;;5.00;99.90;;;;;;5074801;28;20969;-64
2021/03/08 02:21:34;;;;;;;28.27;17.47;;;5.00;99.90;;;;;;5071577;28;21039;-63
2021/03/08 02:24:31;;;;;;;30.73;16.97;;;4.80;99.90;;;;;;5070285;28;20808;-64
2021/03/08 02:27:02;;;;;;;28.70;16.43;;;4.90;99.90;;;;;;5073818;28;20863;-64
2021/03/08 02:29:56;;;;;;;27.80;17.33;;;4.90;99.90;;;;;;5073570;28;20456;-64
2021/03/08 02:32:30;;;;;;;31.20;19.37;;;4.90;99.90;;;;;;5072157;28;20418;-64
2021/03/08 02:35:02;;;;;;;28.77;17.20;;;4.90;99.90;;;;;;5073925;28;20532;-64
2021/03/08 02:37:32;;;;;;;25.73;17.27;;;4.90;99.90;;;;;;5072286;28;20487;-64
2021/03/08 02:40:04;;;;;;;27.53;17.13;;;4.90;99.90;;;;;;5073119;28;20590;-65
2021/03/08 02:42:35;;;;;;;31.20;18.70;;;4.90;99.90;;;;;;5053592;28;20514;-63
2021/03/08 02:45:03;;;;;;;28.83;18.57;;;4.90;99.90;;;;;;5066626;28;20414;-63
2021/03/08 02:47:32;;;;;;;29.83;18.40;;;5.00;99.90;;;;;;5072137;28;20443;-65
2021/03/08 02:50:02;;;;;;;30.83;19.40;;;4.90;99.90;;;;;;5071358;28;20537;-64
2021/03/08 02:52:31;;;;;;;30.23;18.93;;;4.90;99.90;;;;;;5072530;28;20492;-64
2021/03/08 02:55:00;;;;;;;27.00;18.33;;;4.90;99.90;;;;;;5073506;28;20454;-64
2021/03/08 02:57:30;;;;;;;28.87;19.90;;;4.90;99.90;;;;;;5075236;28;20981;-64
2021/03/08 02:59:58;;;;;;;31.60;18.00;;;4.90;99.90;;;;;;5080991;28;20452;-64
2021/03/08 03:02:25;;;;;;;30.27;18.93;;;4.90;99.90;;;;;;5073108;28;20450;-64
2021/03/08 03:04:53;;;;;;;33.20;19.50;;;4.90;99.90;;;;;;5073330;28;20442;-64
2021/03/08 03:07:23;;;;;;;31.97;19.57;;;4.90;99.90;;;;;;5071664;28;20874;-65
2021/03/08 03:09:51;;;;;;;29.60;19.40;;;4.90;99.90;;;;;;5071373;28;20442;-64
2021/03/08 03:12:18;;;;;;;29.47;19.03;;;4.90;99.90;;;;;;5071081;28;20450;-64
2021/03/08 03:14:46;;;;;;;32.87;18.40;;;4.90;99.90;;;;;;5070831;28;20772;-64
2021/03/08 03:17:14;;;;;;;28.70;18.17;;;4.90;99.90;;;;;;5071839;28;20485;-64
2021/03/08 03:19:45;;;;;;;29.60;18.23;;;4.80;99.90;;;;;;5071888;28;20445;-64
2021/03/08 03:22:14;;;;;;;28.60;18.43;;;4.80;99.90;;;;;;5066558;28;20813;-64
2021/03/08 03:24:42;;;;;;;29.07;19.63;;;4.80;99.90;;;;;;5064864;28;20450;-64
2021/03/08 03:27:09;;;;;;;31.10;19.40;;;4.80;99.90;;;;;;5070696;28;20840;-65
2021/03/08 03:29:37;;;;;;;28.40;18.27;;;4.80;99.90;;;;;;5070258;28;20766;-64
2021/03/08 03:32:06;;;;;;;32.80;19.50;;;4.80;99.90;;;;;;5052692;28;20415;-65
2021/03/08 03:34:33;;;;;;;32.93;19.43;;;4.80;99.90;;;;;;5053139;28;20528;-64
2021/03/08 03:37:01;;;;;;;35.33;21.70;;;4.80;99.90;;;;;;5060345;28;21018;-64
2021/03/08 03:39:28;;;;;;;28.63;19.07;;;4.80;99.90;;;;;;5070160;28;20455;-64
2021/03/08 03:41:55;;;;;;;34.20;20.10;;;4.70;99.90;;;;;;5069419;28;20500;-64
2021/03/08 03:44:22;;;;;;;36.40;20.40;;;4.70;99.90;;;;;;5068010;28;20414;-64
2021/03/08 03:46:49;;;;;;;37.03;20.40;;;4.70;99.90;;;;;;5070292;28;20423;-66
2021/03/08 03:49:16;;;;;;;29.73;18.60;;;4.80;99.90;;;;;;5078255;28;20434;-64
2021/03/08 03:51:43;;;;;;;45.50;20.43;;;4.80;99.90;;;;;;5090862;28;20421;-64
2021/03/08 03:54:11;;;;;;;35.17;21.10;;;4.90;99.90;;;;;;5089895;28;20432;-64
2021/03/08 03:56:46;;;;;;;29.97;17.27;;;4.80;99.90;;;;;;5085924;28;20422;-64
2021/03/08 03:59:19;;;;;;;32.50;20.80;;;4.80;99.90;;;;;;5071309;28;20536;-64
2021/03/08 04:01:54;;;;;;;35.60;18.63;;;4.90;99.90;;;;;;5085057;28;20458;-64
2021/03/08 04:04:26;;;;;;;30.80;20.83;;;4.90;99.90;;;;;;5091251;28;20526;-64
2021/03/08 04:06:53;;;;;;;30.07;19.60;;;4.80;99.90;;;;;;5083454;28;20959;-64
2021/03/08 04:09:23;;;;;;;33.17;21.67;;;4.80;99.90;;;;;;5069498;28;20439;-64
2021/03/08 04:11:53;;;;;;;38.40;21.57;;;4.80;99.90;;;;;;5070604;28;20453;-66
2021/03/08 04:14:21;;;;;;;37.57;22.83;;;4.80;99.90;;;;;;5068618;28;20503;-63
2021/03/08 04:16:50;;;;;;;38.30;22.97;;;4.90;99.90;;;;;;5069813;28;20459;-64
2021/03/08 04:19:21;;;;;;;37.90;22.03;;;4.80;99.90;;;;;;5071356;28;20918;-66
2021/03/08 04:21:48;;;;;;;35.70;23.83;;;4.80;99.90;;;;;;5070947;28;20550;-64
2021/03/08 04:24:16;;;;;;;38.03;22.00;;;4.80;99.90;;;;;;5069938;28;20427;-64
2021/03/08 04:26:43;;;;;;;37.13;23.07;;;4.90;99.90;;;;;;5070797;28;20443;-64
2021/03/08 04:29:11;;;;;;;40.37;24.87;;;4.80;99.90;;;;;;5069832;28;20444;-65
2021/03/08 04:31:38;;;;;;;37.10;23.40;;;4.90;99.90;;;;;;5071201;28;20448;-64
2021/03/08 04:34:05;;;;;;;36.50;23.83;;;4.80;99.90;;;;;;5070448;28;20992;-64
2021/03/08 04:36:33;;;;;;;37.27;24.30;;;4.80;99.90;;;;;;5070329;28;21029;-63
2021/03/08 04:39:01;;;;;;;41.07;23.43;;;4.80;99.90;;;;;;5084562;28;20453;-64
2021/03/08 04:41:29;;;;;;;41.70;24.40;;;4.80;99.90;;;;;;5071300;28;20562;-65
2021/03/08 04:43:57;;;;;;;38.90;23.87;;;4.80;99.90;;;;;;5086890;28;20445;-65
2021/03/08 04:46:25;;;;;;;34.37;22.20;;;4.80;99.90;;;;;;5087638;28;20539;-66
2021/03/08 04:48:53;;;;;;;37.93;22.37;;;4.90;99.90;;;;;;5069582;28;20421;-64
2021/03/08 04:51:20;;;;;;;16.55;10.23;;;4.80;99.90;;;;;;5071425;28;20423;-54
2021/03/08 04:53:47;;;;;;;29.07;18.30;;;8.50;99.90;;;;;;5074349;28;20568;-53
2021/03/08 04:56:15;;;;;;;28.73;19.53;;;9.40;99.90;;;;;;5073611;28;20449;-66
2021/03/08 04:58:42;;;;;;;32.37;20.40;;;8.80;99.90;;;;;;5073462;28;20526;-66
2021/03/08 05:01:09;;;;;;;30.13;20.23;;;8.20;99.90;;;;;;5073282;28;20628;-65
2021/03/08 05:03:37;;;;;;;30.43;20.70;;;7.80;99.90;;;;;;5073905;28;20518;-65
2021/03/08 05:06:06;;;;;;;27.70;19.10;;;7.30;99.90;;;;;;5073817;28;20508;-65
2021/03/08 05:08:35;;;;;;;31.30;20.97;;;7.00;99.90;;;;;;5073254;28;20451;-65
2021/03/08 05:11:02;;;;;;;36.83;21.73;;;6.70;99.90;;;;;;5074682;28;20525;-65
2021/03/08 05:13:32;;;;;;;32.47;20.30;;;6.50;99.90;;;;;;5073688;28;20439;-65
2021/03/08 05:16:01;;;;;;;38.37;22.20;;;6.30;99.90;;;;;;5072961;28;20884;-66
2021/03/08 05:18:28;;;;;;;34.87;21.17;;;6.10;99.90;;;;;;5073912;28;21185;-66
2021/03/08 05:20:56;;;;;;;34.93;21.20;;;6.00;99.90;;;;;;5073231;28;20478;-65
2021/03/08 05:23:23;;;;;;;46.33;30.57;;;5.90;99.90;;;;;;5074830;28;20516;-65
2021/03/08 05:25:51;;;;;;;37.97;22.47;;;5.80;99.90;;;;;;5073215;28;20446;-68
2021/03/08 05:28:19;;;;;;;33.40;20.90;;;5.70;99.90;;;;;;5073796;28;20446;-65
2021/03/08 05:30:47;;;;;;;34.87;19.30;;;5.60;99.90;;;;;;5072054;28;20960;-66
2021/03/08 05:33:21;;;;;;;32.23;20.17;;;5.50;99.90;;;;;;5072592;28;20444;-65
2021/03/08 05:35:51;;;;;;;35.07;20.63;;;5.50;99.90;;;;;;5075265;28;20528;-66
2021/03/08 05:38:21;;;;;;;38.23;23.13;;;5.50;99.90;;;;;;5073332;28;20433;-67
2021/03/08 05:40:56;;;;;;;33.60;21.80;;;5.40;99.90;;;;;;5073456;28;20484;-66
2021/03/08 05:43:26;;;;;;;34.43;19.03;;;5.50;99.90;;;;;;5074564;28;20464;-67
2021/03/08 05:45:56;;;;;;;37.73;21.77;;;5.50;99.90;;;;;;5073567;28;20442;-67
2021/03/08 05:48:58;;;;;;;36.33;20.40;;;5.40;99.90;;;;;;5073269;28;20966;-66
2021/03/08 05:51:52;;;;;;;39.43;23.23;;;5.30;99.90;;;;;;5074076;28;20453;-65
2021/03/08 05:54:39;;;;;;;42.77;23.17;;;5.40;99.90;;;;;;5073747;28;20450;-66
2021/03/08 05:57:25;;;;;;;30.90;19.93;;;5.40;99.90;;;;;;5054490;28;20477;-66
2021/03/08 06:00:17;;;;;;;33.23;20.00;;;5.30;99.90;;;;;;5054071;28;20419;-66
2021/03/08 06:03:04;;;;;;;33.73;21.17;;;5.30;99.90;;;;;;5053642;28;20525;-66
2021/03/08 06:06:00;;;;;;;35.03;20.27;;;5.40;99.90;;;;;;5053621;28;20436;-67
2021/03/08 06:09:20;;;;;;;33.97;21.60;;;5.30;99.90;;;;;;5054483;28;20813;-67
2021/03/08 06:11:53;;;;;;;42.17;23.53;;;5.20;99.90;;;;;;5053999;28;20455;-66
2021/03/08 06:14:25;;;;;;;43.27;23.10;;;4.90;99.90;;;;;;5063780;28;20910;-66
2021/03/08 06:16:54;;;;;;;38.70;22.13;;;4.90;99.90;;;;;;5073816;28;20506;-67
2021/03/08 06:19:20;;;;;;;37.87;23.10;;;4.90;99.90;;;;;;5071825;28;20439;-66
2021/03/08 06:21:48;;;;;;;40.03;22.13;;;4.90;99.90;;;;;;5069737;28;20581;-66
2021/03/08 06:24:16;;;;;;;40.40;24.80;;;4.80;99.90;;;;;;5071694;28;20449;-66
2021/03/08 06:26:46;;;;;;;43.27;24.60;;;4.80;99.90;;;;;;5072937;28;20429;-65
2021/03/08 06:29:14;;;;;;;41.60;22.43;;;4.80;99.90;;;;;;5072661;28;20452;-67
2021/03/08 06:31:43;;;;;;;39.53;23.57;;;4.80;99.90;;;;;;5072817;28;20539;-65
2021/03/08 06:34:10;;;;;;;42.03;24.67;;;4.80;99.90;;;;;;5071749;28;20436;-67
2021/03/08 06:36:38;;;;;;;39.27;22.63;;;4.80;99.90;;;;;;5071584;28;20801;-65
2021/03/08 06:39:05;;;;;;;46.27;25.23;;;4.80;99.90;;;;;;5071183;28;20452;-64
2021/03/08 06:41:33;;;;;;;45.63;25.97;;;4.80;99.90;;;;;;5063129;28;20977;-66
2021/03/08 06:44:02;;;;;;;38.83;25.00;;;4.80;99.90;;;;;;5071758;28;20532;-65
2021/03/08 06:46:30;;;;;;;49.53;27.33;;;4.70;99.90;;;;;;5058389;28;20546;-68
2021/03/08 06:48:57;;;;;;;40.00;23.43;;;4.60;99.90;;;;;;5068166;28;20450;-67
2021/03/08 06:51:23;;;;;;;42.57;23.90;;;4.60;99.90;;;;;;5071558;28;20532;-65
2021/03/08 06:53:50;;;;;;;43.43;25.00;;;4.70;99.90;;;;;;5063753;28;20446;-65
2021/03/08 06:56:18;;;;;;;40.00;25.27;;;4.70;99.90;;;;;;5059768;28;21007;-66
2021/03/08 06:58:45;;;;;;;39.83;24.00;;;4.70;99.90;;;;;;5061106;28;20440;-65
2021/03/08 07:01:30;;;;;;;51.07;28.33;;;4.70;99.90;;;;;;5070949;28;20471;-66
2021/03/08 07:03:58;;;;;;;40.93;25.47;;;4.60;99.90;;;;;;5071920;28;20448;-66
2021/03/08 07:06:24;;;;;;;42.20;26.17;;;4.70;99.90;;;;;;5072713;28;20472;-65
2021/03/08 07:08:51;;;;;;;41.53;24.20;;;4.70;99.90;;;;;;5070622;28;20961;-66
2021/03/08 07:11:19;;;;;;;43.03;25.13;;;4.70;99.90;;;;;;5070429;28;20464;-68
2021/03/08 07:13:46;;;;;;;42.27;22.97;;;4.70;99.90;;;;;;5071606;28;20548;-65
2021/03/08 07:16:13;;;;;;;47.60;25.03;;;4.70;99.90;;;;;;5069934;28;20460;-66
2021/03/08 07:18:41;;;;;;;42.37;25.53;;;4.70;99.90;;;;;;5070236;28;20432;-64
2021/03/08 07:21:15;;;;;;;36.40;22.37;;;4.70;99.90;;;;;;5071688;28;20945;-64
2021/03/08 07:23:42;;;;;;;36.83;22.30;;;4.80;99.90;;;;;;5071121;28;20527;-65
2021/03/08 07:26:10;;;;;;;37.27;22.30;;;4.80;99.90;;;;;;5070592;28;20536;-65
2021/03/08 07:28:37;;;;;;;38.33;22.53;;;4.70;99.90;;;;;;5070755;28;20498;-67
2021/03/08 07:31:03;;;;;;;43.80;22.73;;;4.70;99.90;;;;;;5063826;28;20532;-67
2021/03/08 07:33:30;;;;;;;36.77;22.50;;;4.70;99.90;;;;;;5070658;28;20516;-65
2021/03/08 07:35:58;;;;;;;36.13;21.87;;;4.70;99.90;;;;;;5060549;28;21165;-66
2021/03/08 07:38:32;;;;;;;44.73;27.00;;;4.70;99.90;;;;;;5056377;28;20457;-62
2021/03/08 07:41:20;;;;;;;43.13;25.57;;;4.80;99.90;;;;;;5061820;28;20478;-62
2021/03/08 07:43:49;;;;;;;43.67;25.33;;;4.80;99.90;;;;;;5067267;28;20453;-62
2021/03/08 07:46:29;;;;;;;38.40;24.03;;;4.80;99.90;;;;;;5064398;28;20450;-61
2021/03/08 07:48:57;;;;;;;41.53;25.70;;;4.90;99.90;;;;;;5059808;28;20436;-63
2021/03/08 07:51:24;;;;;;;40.70;25.60;;;4.90;99.90;;;;;;5068092;28;20451;-63
2021/03/08 07:53:59;;;;;;;43.83;26.53;;;4.90;99.90;;;;;;5068791;28;20446;-65
2021/03/08 07:56:26;;;;;;;48.20;25.37;;;4.90;99.90;;;;;;5064529;28;20447;-65
2021/03/08 07:58:53;;;;;;;43.57;26.07;;;4.90;99.90;;;;;;5061341;28;20446;-64
2021/03/08 08:01:20;;;;;;;42.20;26.80;;;4.90;99.90;;;;;;5052887;28;20563;-64
2021/03/08 08:03:47;;;;;;;46.83;26.80;;;5.00;99.90;;;;;;5065159;28;20532;-63
2021/03/08 08:06:17;;;;;;;46.87;28.40;;;5.00;99.90;;;;;;5058881;28;20756;-64
2021/03/08 08:09:19;;;;;;;57.57;33.30;;;5.00;99.90;;;;;;5064580;28;20496;-66
2021/03/08 08:12:07;;;;;;;51.20;28.63;;;4.90;99.90;;;;;;5060682;28;20462;-68
2021/03/08 08:14:52;;;;;;;48.13;26.40;;;5.00;99.90;;;;;;5061032;28;20555;-67
2021/03/08 08:17:37;;;;;;;50.63;29.00;;;5.00;99.90;;;;;;5071153;28;20428;-63
2021/03/08 08:20:28;;;;;;;54.07;31.20;;;5.10;99.90;;;;;;5070130;28;20455;-62
2021/03/08 08:23:11;;;;;;;52.60;30.60;;;5.00;99.90;;;;;;5065273;28;20528;-62
2021/03/08 08:25:56;;;;;;;49.00;30.20;;;5.00;99.90;;;;;;5067394;28;20461;-63
2021/03/08 08:28:36;;;;;;;59.07;31.53;;;5.10;99.90;;;;;;5066894;28;20484;-64
2021/03/08 08:31:11;;;;;;;60.63;33.50;;;5.10;99.90;;;;;;5068632;28;20448;-63
2021/03/08 08:33:43;;;;;;;62.63;34.33;;;5.00;99.90;;;;;;5059107;28;20454;-63
2021/03/08 08:36:37;;;;;;;61.13;33.43;;;5.10;99.90;;;;;;5068003;28;20947;-64
2021/03/08 08:39:33;;;;;;;57.53;32.23;;;5.10;99.90;;;;;;5070881;28;20511;-64
2021/03/08 08:42:24;;;;;;;60.13;33.50;;;5.20;99.90;;;;;;5071280;28;20470;-68
2021/03/08 08:45:23;;;;;;;68.60;35.03;;;5.30;99.90;;;;;;5070691;28;20428;-65
2021/03/08 08:48:19;;;;;;;64.70;33.57;;;5.40;99.90;;;;;;5068224;28;20423;-65
2021/03/08 08:50:58;;;;;;;65.70;34.80;;;5.50;99.90;;;;;;5068914;28;20537;-64
2021/03/08 08:54:15;;;;;;;72.40;38.30;;;5.50;99.90;;;;;;5070791;28;20450;-65
2021/03/08 08:56:54;;;;;;;72.03;39.37;;;5.20;99.90;;;;;;5068876;28;20492;-66
2021/03/08 08:59:33;;;;;;;75.23;39.00;;;5.30;99.90;;;;;;5070235;28;20818;-64
2021/03/08 09:02:35;;;;;;;69.90;39.20;;;5.30;99.90;;;;;;5069950;28;20514;-64
2021/03/08 09:05:31;;;;;;;70.37;36.80;;;5.20;99.90;;;;;;5068350;28;20453;-63
2021/03/08 09:08:31;;;;;;;78.67;41.67;;;5.30;99.90;;;;;;5055611;28;20485;-66
2021/03/08 09:11:13;;;;;;;75.30;39.17;;;5.30;99.90;;;;;;5052543;28;20421;-65
2021/03/08 09:14:32;;;;;;;72.10;37.80;;;5.40;99.90;;;;;;5067898;28;20453;-65
2021/03/08 09:17:23;;;;;;;86.77;43.47;;;5.50;99.90;;;;;;5069795;28;20463;-65
2021/03/08 09:20:34;;;;;;;76.17;40.23;;;5.60;99.90;;;;;;5069483;28;20507;-63
2021/03/08 09:23:27;;;;;;;75.40;42.13;;;5.60;99.90;;;;;;5064043;28;20472;-64
2021/03/08 09:26:03;;;;;;;74.90;40.53;;;5.60;99.90;;;;;;5063398;28;20513;-64
2021/03/08 09:28:49;;;;;;;86.33;42.47;;;5.60;99.90;;;;;;5069062;28;20450;-65
2021/03/08 09:31:29;;;;;;;80.93;40.07;;;5.70;99.90;;;;;;5068342;28;20472;-60
2021/03/08 09:34:12;;;;;;;77.83;42.13;;;5.80;99.90;;;;;;5063759;28;21105;-63
2021/03/08 09:36:42;;;;;;;82.37;40.07;;;5.80;99.90;;;;;;5066377;28;20852;-63
2021/03/08 09:39:08;;;;;;;80.07;39.20;;;5.90;99.90;;;;;;5052693;28;20427;-64
2021/03/08 09:41:35;;;;;;;95.30;44.93;;;5.90;99.90;;;;;;5059027;28;20469;-66
2021/03/08 09:44:06;;;;;;;83.10;44.37;;;6.00;99.90;;;;;;5068803;28;20481;-64
2021/03/08 09:46:38;;;;;;;83.97;40.40;;;6.10;99.90;;;;;;5058103;28;20423;-64
2021/03/08 09:49:24;;;;;;;81.03;41.23;;;6.00;99.90;;;;;;5062591;28;20533;-61
2021/03/08 09:51:57;;;;;;;73.80;39.33;;;6.20;99.90;;;;;;5058346;28;20459;-66
2021/03/08 09:54:51;;;;;;;70.77;39.10;;;6.30;99.90;;;;;;5059277;28;20417;-67
2021/03/08 09:57:37;;;;;;;84.83;37.50;;;6.10;99.90;;;;;;5067439;28;20447;-66
2021/03/08 10:00:13;;;;;;;91.57;43.87;;;6.20;99.90;;;;;;5070075;28;20966;-64
2021/03/08 10:03:01;;;;;;;66.73;39.10;;;6.10;99.90;;;;;;5071550;28;20477;-65
2021/03/08 10:05:55;;;;;;;75.90;38.20;;;6.20;99.90;;;;;;5057490;28;20476;-64
2021/03/08 10:08:32;;;;;;;80.10;43.97;;;6.30;99.90;;;;;;5070322;28;20439;-66
2021/03/08 10:11:09;;;;;;;74.70;37.73;;;6.40;99.90;;;;;;5062545;28;20826;-65
2021/03/08 10:13:49;;;;;;;74.50;38.77;;;6.50;99.90;;;;;;5071788;28;20457;-66
2021/03/08 10:26:58;;;;;;;78.90;39.60;;;6.50;99.90;;;;;;4974746;28;20479;-66
2021/03/08 10:29:39;;;;;;;71.07;36.43;;;6.70;99.90;;;;;;5084733;28;20442;-66
2021/03/08 10:32:21;;;;;;;70.67;38.73;;;6.80;99.90;;;;;;5092590;28;20456;-66
2021/03/08 10:34:58;;;;;;;80.80;40.17;;;6.80;99.90;;;;;;5085388;28;20500;-66
2021/03/08 10:40:15;;;;;;;71.47;37.20;;;6.60;99.90;;;;;;5083802;22;21019;-77
2021/03/08 10:42:43;;;;;;;71.27;36.63;;;6.70;99.90;;;;;;5107783;27;20557;-77
2021/03/08 10:45:11;;;;;;;77.60;40.60;;;6.90;99.90;;;;;;5103557;28;20510;-78
2021/03/08 10:47:38;;;;;;;80.20;39.90;;;6.70;99.90;;;;;;5098922;28;20471;-77
2021/03/08 10:50:06;;;;;;;80.43;41.47;;;6.70;99.90;;;;;;5094718;28;20456;-77
2021/03/08 10:52:33;;;;;;;67.93;39.53;;;6.60;99.90;;;;;;5108192;28;20523;-77
2021/03/08 10:55:00;;;;;;;71.97;41.07;;;6.60;99.90;;;;;;5110152;28;20441;-77
2021/03/08 10:57:27;;;;;;;85.70;42.43;;;6.80;99.90;;;;;;5109176;28;20466;-76
2021/03/08 10:59:56;;;;;;;80.10;38.97;;;7.00;99.90;;;;;;5101718;28;20456;-75
2021/03/08 11:02:24;;;;;;;83.73;40.83;;;6.80;99.90;;;;;;5103674;28;20560;-78
2021/03/08 11:04:52;;;;;;;83.50;43.47;;;7.10;99.90;;;;;;5101548;28;20445;-78
2021/03/08 11:07:30;;;;;;;85.07;41.67;;;7.20;99.90;;;;;;5109356;28;20453;-77
2021/03/08 11:09:57;;;;;;;71.43;38.13;;;7.20;99.90;;;;;;5090869;28;20661;-77
2021/03/08 11:12:24;;;;;;;86.87;42.43;;;7.30;99.90;;;;;;5095814;28;20553;-77
2021/03/08 11:14:52;;;;;;;85.90;42.17;;;7.30;99.90;;;;;;5097966;28;20452;-77
2021/03/08 11:17:33;;;;;;;70.27;39.10;;;7.40;99.90;;;;;;5094519;28;20487;-77
2021/03/08 11:20:05;;;;;;;74.10;38.60;;;7.40;99.90;;;;;;5092656;28;20461;-78
2021/03/08 11:22:32;;;;;;;79.00;37.40;;;7.60;99.90;;;;;;5093868;28;20569;-77
2021/03/08 11:24:58;;;;;;;63.70;35.23;;;7.90;99.90;;;;;;5102570;28;20461;-76
2021/03/08 11:27:27;;;;;;;74.03;38.90;;;8.00;99.90;;;;;;5101126;28;20454;-78
2021/03/08 11:29:58;;;;;;;69.60;38.97;;;8.00;99.90;;;;;;5114761;28;20465;-76
2021/03/08 11:34:54;;;;;;;78.27;38.77;;;7.60;99.90;;;;;;5090589;27;20487;-64
2021/03/08 11:37:23;;;;;;;68.17;36.27;;;7.60;99.90;;;;;;5109915;27;20452;-63
2021/03/08 11:39:51;;;;;;;74.17;40.13;;;7.60;99.90;;;;;;5119496;27;20472;-64
2021/03/08 11:42:19;;;;;;;63.70;36.83;;;7.50;99.90;;;;;;5106296;27;20491;-66
2021/03/08 11:44:46;;;;;;;78.93;37.73;;;7.50;99.90;;;;;;5102753;28;20993;-62
2021/03/08 11:47:13;;;;;;;74.47;41.20;;;7.40;99.90;;;;;;5104338;28;20474;-66
2021/03/08 11:49:41;;;;;;;70.70;36.20;;;7.40;99.90;;;;;;5101262;28;20532;-66
2021/03/08 11:52:09;;;;;;;72.47;37.93;;;7.40;99.90;;;;;;5102641;28;20544;-64
2021/03/08 11:54:37;;;;;;;66.67;37.13;;;7.20;99.90;;;;;;5106021;28;20453;-66
2021/03/08 11:57:05;;;;;;;62.93;36.10;;;7.40;99.90;;;;;;5083944;28;20505;-64
2021/03/08 11:59:32;;;;;;;63.27;35.03;;;7.50;99.90;;;;;;5106501;28;20453;-66
2021/03/08 12:01:59;;;;;;;65.83;37.03;;;7.70;99.90;;;;;;5104757;27;20484;-65
2021/03/08 12:04:26;;;;;;;69.87;35.43;;;7.70;99.90;;;;;;5105294;27;20957;-62
2021/03/08 12:06:53;;;;;;;61.10;34.47;;;7.80;99.90;;;;;;5095360;28;20467;-63
2021/03/08 12:09:21;;;;;;;62.37;34.67;;;8.00;99.90;;;;;;5100277;28;20458;-65
2021/03/08 12:11:48;;;;;;;75.53;37.63;;;7.80;99.90;;;;;;5095556;27;20458;-65
2021/03/08 12:14:15;;;;;;;56.43;32.10;;;7.60;99.90;;;;;;5093596;28;20471;-66
2021/03/08 12:16:42;;;;;;;56.37;30.97;;;7.80;99.90;;;;;;5110593;27;20461;-62
2021/03/08 12:19:08;;;;;;;54.70;30.67;;;7.80;99.90;;;;;;5116875;27;20442;-66
2021/03/08 12:21:35;;;;;;;58.87;33.87;;;7.80;99.90;;;;;;5124448;27;20468;-62
2021/03/08 12:24:02;;;;;;;56.50;31.83;;;7.80;99.90;;;;;;5113894;28;20536;-64
2021/03/08 12:26:29;;;;;;;62.83;33.90;;;7.80;99.90;;;;;;5114134;27;20448;-61
2021/03/08 12:28:56;;;;;;;62.77;34.60;;;7.80;99.90;;;;;;5104797;27;20419;-63
2021/03/08 12:31:22;;;;;;;60.43;33.90;;;7.90;99.90;;;;;;5119763;27;20523;-65
2021/03/08 12:33:49;;;;;;;59.80;32.00;;;7.70;99.90;;;;;;5094369;28;20532;-61
2021/03/08 12:36:16;;;;;;;62.07;34.87;;;7.70;99.90;;;;;;5115025;28;20532;-62
2021/03/08 12:38:43;;;;;;;59.47;35.10;;;7.70;99.90;;;;;;5119033;28;20955;-63
2021/03/08 12:41:09;;;;;;;63.30;35.63;;;7.70;99.90;;;;;;5116835;28;20542;-63
2021/03/08 12:43:37;;;;;;;61.03;35.23;;;7.70;99.90;;;;;;5125546;28;20932;-65
2021/03/08 12:46:03;;;;;;;63.33;35.10;;;7.80;99.90;;;;;;5095233;28;20479;-63
2021/03/08 12:48:30;;;;;;;85.53;42.97;;;7.80;99.90;;;;;;5103602;28;20444;-65
2021/03/08 12:50:56;;;;;;;72.60;39.17;;;7.70;99.90;;;;;;5103879;28;20529;-64
2021/03/08 12:53:23;;;;;;;63.63;37.43;;;7.70;99.90;;;;;;5128262;28;20440;-64
2021/03/08 12:55:49;;;;;;;77.07;39.10;;;7.80;99.90;;;;;;5104355;28;20520;-70
2021/03/08 12:58:16;;;;;;;57.47;32.80;;;7.80;99.90;;;;;;5111060;28;20550;-66
2021/03/08 13:00:44;;;;;;;69.53;36.83;;;7.80;99.90;;;;;;5097531;28;20505;-63
2021/03/08 13:03:11;;;;;;;63.07;35.77;;;7.80;99.90;;;;;;5106933;28;20540;-63
2021/03/08 13:05:37;;;;;;;67.03;36.87;;;7.60;99.90;;;;;;5084608;28;20485;-63
2021/03/08 13:08:04;;;;;;;83.73;44.27;;;7.40;99.90;;;;;;5109697;28;20447;-63
2021/03/08 13:10:31;;;;;;;77.37;42.20;;;7.40;99.90;;;;;;5093470;28;20883;-62
2021/03/08 13:12:57;;;;;;;87.07;45.38;;;7.70;99.90;;;;;;5131291;27;20488;-64
2021/03/08 13:15:24;;;;;;;87.97;45.50;;;7.80;99.90;;;;;;5119052;27;20227;-65